sensor_id;sensor_type;location;lat;lon;timestamp;P1;durP1;ratioP1;P2;durP2;ratioP2
27644;SDS011;15054;57.152;-2.118;2022-09-03T00:00:54;12.75;;;2.78;;
27644;SDS011;15054;57.152;-2.118;2022-09-03T00:03:28;10.98;;;2.50;;
27644;SDS011;15054;57.152;-2.118;2022-09-03T00:08:47;12.95;;;2.80;;
27644;SDS011;15054;57.152;-2.118;2022-09-03T00:11:34;9.98;;;2.50;;
27644;SDS011;15054;57.152;-2.118;2022-09-03T00:14:23;7.43;;;2.90;;
27644;SDS011;15054;57.152;-2.118;2022-09-03T00:16:55;13.73;;;2.80;;
27644;SDS011;15054;57.152;-2.118;2022-09-03T00:19:30;9.70;;;2.67;;
27644;SDS011;15054;57.152;-2.118;2022-09-03T00:22:15;8.43;;;2.63;;
27644;SDS011;15054;57.152;-2.118;2022-09-03T00:24:47;11.07;;;2.58;;
27644;SDS011;15054;57.152;-2.118;2022-09-03T00:27:21;9.13;;;2.53;;
27644;SDS011;15054;57.152;-2.118;2022-09-03T00:30:02;16.20;;;3.03;;
27644;SDS011;15054;57.152;-2.118;2022-09-03T00:32:46;13.02;;;2.92;;
27644;SDS011;15054;57.152;-2.118;2022-09-03T00:35:32;15.85;;;2.90;;
27644;SDS011;15054;57.152;-2.118;2022-09-03T00:38:07;11.32;;;2.38;;
27644;SDS011;15054;57.152;-2.118;2022-09-03T00:40:40;13.90;;;2.88;;
27644;SDS011;15054;57.152;-2.118;2022-09-03T00:49:32;10.98;;;2.83;;
27644;SDS011;15054;57.152;-2.118;2022-09-03T00:51:45;8.55;;;2.30;;
27644;SDS011;15054;57.152;-2.118;2022-09-03T01:02:13;13.05;;;3.65;;
27644;SDS011;15054;57.152;-2.118;2022-09-03T01:12:51;10.85;;;3.25;;
27644;SDS011;15054;57.152;-2.118;2022-09-03T01:15:44;11.85;;;3.10;;
27644;SDS011;15054;57.152;-2.118;2022-09-03T01:21:35;12.80;;;2.80;;
27644;SDS011;15054;57.152;-2.118;2022-09-03T01:27:07;11.63;;;3.08;;
27644;SDS011;15054;57.152;-2.118;2022-09-03T01:32:50;10.23;;;2.30;;
27644;SDS011;15054;57.152;-2.118;2022-09-03T01:43:57;15.27;;;2.85;;
27644;SDS011;15054;57.152;-2.118;2022-09-03T01:46:57;13.02;;;2.30;;
27644;SDS011;15054;57.152;-2.118;2022-09-03T01:50:02;10.82;;;2.00;;
27644;SDS011;15054;57.152;-2.118;2022-09-03T01:55:20;15.77;;;3.75;;
27644;SDS011;15054;57.152;-2.118;2022-09-03T01:57:55;21.60;;;3.60;;
27644;SDS011;15054;57.152;-2.118;2022-09-03T02:00:27;9.02;;;2.67;;
27644;SDS011;15054;57.152;-2.118;2022-09-03T02:03:01;10.65;;;2.38;;
27644;SDS011;15054;57.152;-2.118;2022-09-03T02:05:32;15.50;;;2.88;;
27644;SDS011;15054;57.152;-2.118;2022-09-03T02:08:04;9.80;;;2.70;;
27644;SDS011;15054;57.152;-2.118;2022-09-03T02:10:43;13.48;;;2.10;;
27644;SDS011;15054;57.152;-2.118;2022-09-03T02:13:38;15.77;;;2.50;;
27644;SDS011;15054;57.152;-2.118;2022-09-03T02:16:10;19.15;;;2.85;;
27644;SDS011;15054;57.152;-2.118;2022-09-03T02:18:43;16.42;;;2.47;;
27644;SDS011;15054;57.152;-2.118;2022-09-03T02:21:14;12.98;;;2.35;;
27644;SDS011;15054;57.152;-2.118;2022-09-03T02:23:45;17.88;;;2.22;;
27644;SDS011;15054;57.152;-2.118;2022-09-03T02:26:15;13.45;;;2.92;;
27644;SDS011;15054;57.152;-2.118;2022-09-03T02:28:44;11.23;;;2.03;;
27644;SDS011;15054;57.152;-2.118;2022-09-03T02:31:11;19.80;;;2.72;;
27644;SDS011;15054;57.152;-2.118;2022-09-03T02:33:39;19.17;;;2.67;;
27644;SDS011;15054;57.152;-2.118;2022-09-03T02:36:11;15.52;;;2.80;;
27644;SDS011;15054;57.152;-2.118;2022-09-03T02:38:40;12.00;;;2.80;;
27644;SDS011;15054;57.152;-2.118;2022-09-03T02:41:08;10.75;;;2.38;;
27644;SDS011;15054;57.152;-2.118;2022-09-03T02:43:41;19.50;;;3.90;;
27644;SDS011;15054;57.152;-2.118;2022-09-03T02:46:26;16.05;;;2.50;;
27644;SDS011;15054;57.152;-2.118;2022-09-03T02:49:00;18.92;;;3.28;;
27644;SDS011;15054;57.152;-2.118;2022-09-03T02:51:30;13.23;;;2.33;;
27644;SDS011;15054;57.152;-2.118;2022-09-03T02:54:03;16.55;;;2.67;;
27644;SDS011;15054;57.152;-2.118;2022-09-03T02:56:30;13.70;;;2.55;;
27644;SDS011;15054;57.152;-2.118;2022-09-03T02:58:57;13.50;;;2.67;;
27644;SDS011;15054;57.152;-2.118;2022-09-03T03:01:25;15.98;;;3.13;;
27644;SDS011;15054;57.152;-2.118;2022-09-03T03:03:53;20.48;;;2.97;;
27644;SDS011;15054;57.152;-2.118;2022-09-03T03:06:20;13.73;;;2.50;;
27644;SDS011;15054;57.152;-2.118;2022-09-03T03:08:48;14.80;;;2.47;;
27644;SDS011;15054;57.152;-2.118;2022-09-03T03:11:16;20.63;;;2.97;;
27644;SDS011;15054;57.152;-2.118;2022-09-03T03:13:44;9.25;;;2.28;;
27644;SDS011;15054;57.152;-2.118;2022-09-03T03:16:12;12.30;;;2.22;;
27644;SDS011;15054;57.152;-2.118;2022-09-03T03:18:41;12.23;;;2.60;;
27644;SDS011;15054;57.152;-2.118;2022-09-03T03:21:09;16.38;;;2.78;;
27644;SDS011;15054;57.152;-2.118;2022-09-03T03:23:37;7.22;;;2.90;;
27644;SDS011;15054;57.152;-2.118;2022-09-03T03:26:06;10.82;;;2.20;;
27644;SDS011;15054;57.152;-2.118;2022-09-03T03:28:35;17.10;;;2.90;;
27644;SDS011;15054;57.152;-2.118;2022-09-03T03:31:12;8.32;;;2.25;;
27644;SDS011;15054;57.152;-2.118;2022-09-03T03:33:41;10.23;;;2.47;;
27644;SDS011;15054;57.152;-2.118;2022-09-03T03:36:10;10.43;;;2.67;;
27644;SDS011;15054;57.152;-2.118;2022-09-03T03:38:40;15.55;;;2.67;;
27644;SDS011;15054;57.152;-2.118;2022-09-03T03:41:09;8.20;;;2.53;;
27644;SDS011;15054;57.152;-2.118;2022-09-03T03:43:38;23.45;;;3.17;;
27644;SDS011;15054;57.152;-2.118;2022-09-03T03:46:05;14.45;;;2.65;;
27644;SDS011;15054;57.152;-2.118;2022-09-03T03:48:33;12.13;;;2.95;;
27644;SDS011;15054;57.152;-2.118;2022-09-03T03:51:00;8.30;;;1.70;;
27644;SDS011;15054;57.152;-2.118;2022-09-03T03:53:30;16.98;;;2.97;;
27644;SDS011;15054;57.152;-2.118;2022-09-03T03:55:58;11.55;;;2.85;;
27644;SDS011;15054;57.152;-2.118;2022-09-03T03:58:27;19.23;;;3.38;;
27644;SDS011;15054;57.152;-2.118;2022-09-03T04:01:02;13.52;;;2.97;;
27644;SDS011;15054;57.152;-2.118;2022-09-03T04:03:33;24.27;;;3.55;;
27644;SDS011;15054;57.152;-2.118;2022-09-03T04:06:01;13.63;;;2.65;;
27644;SDS011;15054;57.152;-2.118;2022-09-03T04:08:32;15.50;;;2.60;;
27644;SDS011;15054;57.152;-2.118;2022-09-03T04:11:01;15.07;;;2.55;;
27644;SDS011;15054;57.152;-2.118;2022-09-03T04:13:33;17.63;;;2.90;;
27644;SDS011;15054;57.152;-2.118;2022-09-03T04:16:02;17.05;;;2.65;;
27644;SDS011;15054;57.152;-2.118;2022-09-03T04:18:32;12.18;;;2.60;;
27644;SDS011;15054;57.152;-2.118;2022-09-03T04:21:00;16.75;;;3.63;;
27644;SDS011;15054;57.152;-2.118;2022-09-03T04:23:36;13.27;;;2.83;;
27644;SDS011;15054;57.152;-2.118;2022-09-03T04:26:05;19.23;;;2.97;;
27644;SDS011;15054;57.152;-2.118;2022-09-03T04:28:33;12.52;;;2.40;;
27644;SDS011;15054;57.152;-2.118;2022-09-03T04:31:02;10.80;;;2.92;;
27644;SDS011;15054;57.152;-2.118;2022-09-03T04:33:34;17.60;;;2.90;;
27644;SDS011;15054;57.152;-2.118;2022-09-03T04:36:07;23.63;;;4.05;;
27644;SDS011;15054;57.152;-2.118;2022-09-03T04:38:38;15.13;;;3.10;;
27644;SDS011;15054;57.152;-2.118;2022-09-03T04:41:07;10.32;;;2.28;;
27644;SDS011;15054;57.152;-2.118;2022-09-03T04:43:37;13.65;;;2.50;;
27644;SDS011;15054;57.152;-2.118;2022-09-03T04:46:05;17.02;;;3.10;;
27644;SDS011;15054;57.152;-2.118;2022-09-03T04:48:43;16.98;;;3.25;;
27644;SDS011;15054;57.152;-2.118;2022-09-03T04:51:13;14.48;;;2.28;;
27644;SDS011;15054;57.152;-2.118;2022-09-03T04:53:43;15.30;;;2.92;;
27644;SDS011;15054;57.152;-2.118;2022-09-03T04:58:40;13.38;;;2.75;;
27644;SDS011;15054;57.152;-2.118;2022-09-03T05:01:10;20.20;;;4.40;;
27644;SDS011;15054;57.152;-2.118;2022-09-03T05:03:43;13.05;;;2.55;;
27644;SDS011;15054;57.152;-2.118;2022-09-03T05:06:11;19.02;;;3.40;;
27644;SDS011;15054;57.152;-2.118;2022-09-03T05:08:39;14.13;;;3.38;;
27644;SDS011;15054;57.152;-2.118;2022-09-03T05:11:06;17.02;;;3.20;;
27644;SDS011;15054;57.152;-2.118;2022-09-03T05:13:34;18.50;;;3.08;;
27644;SDS011;15054;57.152;-2.118;2022-09-03T05:16:06;12.55;;;3.03;;
27644;SDS011;15054;57.152;-2.118;2022-09-03T05:18:34;15.50;;;3.65;;
27644;SDS011;15054;57.152;-2.118;2022-09-03T05:21:03;12.35;;;2.95;;
27644;SDS011;15054;57.152;-2.118;2022-09-03T05:23:40;21.83;;;3.38;;
27644;SDS011;15054;57.152;-2.118;2022-09-03T05:26:09;19.85;;;3.97;;
27644;SDS011;15054;57.152;-2.118;2022-09-03T05:28:39;23.10;;;3.60;;
27644;SDS011;15054;57.152;-2.118;2022-09-03T05:31:09;14.95;;;2.90;;
27644;SDS011;15054;57.152;-2.118;2022-09-03T05:33:39;14.57;;;3.25;;
27644;SDS011;15054;57.152;-2.118;2022-09-03T05:36:09;12.57;;;3.35;;
27644;SDS011;15054;57.152;-2.118;2022-09-03T05:38:39;11.48;;;2.88;;
27644;SDS011;15054;57.152;-2.118;2022-09-03T05:41:07;21.70;;;3.63;;
27644;SDS011;15054;57.152;-2.118;2022-09-03T05:43:35;13.73;;;3.15;;
27644;SDS011;15054;57.152;-2.118;2022-09-03T05:46:07;15.10;;;3.85;;
27644;SDS011;15054;57.152;-2.118;2022-09-03T05:48:39;17.13;;;3.28;;
27644;SDS011;15054;57.152;-2.118;2022-09-03T05:51:07;13.63;;;3.22;;
27644;SDS011;15054;57.152;-2.118;2022-09-03T05:53:37;18.00;;;3.08;;
27644;SDS011;15054;57.152;-2.118;2022-09-03T05:56:10;13.18;;;3.30;;
27644;SDS011;15054;57.152;-2.118;2022-09-03T05:58:39;17.95;;;3.70;;
27644;SDS011;15054;57.152;-2.118;2022-09-03T06:01:10;22.42;;;4.07;;
27644;SDS011;15054;57.152;-2.118;2022-09-03T06:03:40;10.65;;;2.67;;
27644;SDS011;15054;57.152;-2.118;2022-09-03T06:06:09;14.98;;;3.53;;
27644;SDS011;15054;57.152;-2.118;2022-09-03T06:08:39;22.17;;;4.13;;
27644;SDS011;15054;57.152;-2.118;2022-09-03T06:11:07;23.77;;;4.35;;
27644;SDS011;15054;57.152;-2.118;2022-09-03T06:13:35;15.98;;;3.35;;
27644;SDS011;15054;57.152;-2.118;2022-09-03T06:16:03;11.57;;;3.15;;
27644;SDS011;15054;57.152;-2.118;2022-09-03T06:18:31;16.58;;;2.80;;
27644;SDS011;15054;57.152;-2.118;2022-09-03T06:21:00;15.48;;;2.53;;
27644;SDS011;15054;57.152;-2.118;2022-09-03T06:23:29;11.77;;;2.80;;
27644;SDS011;15054;57.152;-2.118;2022-09-03T06:26:03;13.70;;;2.83;;
27644;SDS011;15054;57.152;-2.118;2022-09-03T06:28:32;21.70;;;3.75;;
27644;SDS011;15054;57.152;-2.118;2022-09-03T06:31:02;19.40;;;2.63;;
27644;SDS011;15054;57.152;-2.118;2022-09-03T06:33:31;20.17;;;3.75;;
27644;SDS011;15054;57.152;-2.118;2022-09-03T06:36:00;11.80;;;3.08;;
27644;SDS011;15054;57.152;-2.118;2022-09-03T06:38:34;19.02;;;3.83;;
27644;SDS011;15054;57.152;-2.118;2022-09-03T06:41:03;13.75;;;2.90;;
27644;SDS011;15054;57.152;-2.118;2022-09-03T06:43:34;22.85;;;3.00;;
27644;SDS011;15054;57.152;-2.118;2022-09-03T06:46:14;8.05;;;2.50;;
27644;SDS011;15054;57.152;-2.118;2022-09-03T06:48:42;12.75;;;2.15;;
27644;SDS011;15054;57.152;-2.118;2022-09-03T06:51:15;16.23;;;3.25;;
27644;SDS011;15054;57.152;-2.118;2022-09-03T06:53:44;14.45;;;2.72;;
27644;SDS011;15054;57.152;-2.118;2022-09-03T06:56:14;16.15;;;2.85;;
27644;SDS011;15054;57.152;-2.118;2022-09-03T06:58:58;14.38;;;2.83;;
27644;SDS011;15054;57.152;-2.118;2022-09-03T07:01:29;20.02;;;3.08;;
27644;SDS011;15054;57.152;-2.118;2022-09-03T07:03:58;17.45;;;2.25;;
27644;SDS011;15054;57.152;-2.118;2022-09-03T07:06:28;17.95;;;3.15;;
27644;SDS011;15054;57.152;-2.118;2022-09-03T07:08:59;13.30;;;2.78;;
27644;SDS011;15054;57.152;-2.118;2022-09-03T07:11:27;14.98;;;2.75;;
27644;SDS011;15054;57.152;-2.118;2022-09-03T07:13:57;16.20;;;2.58;;
27644;SDS011;15054;57.152;-2.118;2022-09-03T07:16:26;19.40;;;3.10;;
27644;SDS011;15054;57.152;-2.118;2022-09-03T07:19:01;14.13;;;2.58;;
27644;SDS011;15054;57.152;-2.118;2022-09-03T07:21:33;17.33;;;3.10;;
27644;SDS011;15054;57.152;-2.118;2022-09-03T07:24:04;20.50;;;3.70;;
27644;SDS011;15054;57.152;-2.118;2022-09-03T07:26:34;10.38;;;2.85;;
27644;SDS011;15054;57.152;-2.118;2022-09-03T07:29:06;18.20;;;3.17;;
27644;SDS011;15054;57.152;-2.118;2022-09-03T07:31:35;22.38;;;3.95;;
27644;SDS011;15054;57.152;-2.118;2022-09-03T07:34:12;11.23;;;2.45;;
27644;SDS011;15054;57.152;-2.118;2022-09-03T07:36:43;12.60;;;2.80;;
27644;SDS011;15054;57.152;-2.118;2022-09-03T07:39:14;19.02;;;3.72;;
27644;SDS011;15054;57.152;-2.118;2022-09-03T07:41:43;19.95;;;3.33;;
27644;SDS011;15054;57.152;-2.118;2022-09-03T07:44:12;14.98;;;2.65;;
27644;SDS011;15054;57.152;-2.118;2022-09-03T07:46:43;18.42;;;3.92;;
27644;SDS011;15054;57.152;-2.118;2022-09-03T07:49:12;21.50;;;3.38;;
27644;SDS011;15054;57.152;-2.118;2022-09-03T07:51:39;18.17;;;3.85;;
27644;SDS011;15054;57.152;-2.118;2022-09-03T07:54:07;17.58;;;2.63;;
27644;SDS011;15054;57.152;-2.118;2022-09-03T07:56:37;20.85;;;3.30;;
27644;SDS011;15054;57.152;-2.118;2022-09-03T07:59:06;21.58;;;5.43;;
27644;SDS011;15054;57.152;-2.118;2022-09-03T08:01:36;22.25;;;3.95;;
27644;SDS011;15054;57.152;-2.118;2022-09-03T08:04:07;17.55;;;3.97;;
27644;SDS011;15054;57.152;-2.118;2022-09-03T08:06:35;21.42;;;3.58;;
27644;SDS011;15054;57.152;-2.118;2022-09-03T08:09:06;24.90;;;4.95;;
27644;SDS011;15054;57.152;-2.118;2022-09-03T08:11:37;16.50;;;3.42;;
27644;SDS011;15054;57.152;-2.118;2022-09-03T08:14:07;14.57;;;3.90;;
27644;SDS011;15054;57.152;-2.118;2022-09-03T08:16:39;22.38;;;3.70;;
27644;SDS011;15054;57.152;-2.118;2022-09-03T08:19:08;16.17;;;3.42;;
27644;SDS011;15054;57.152;-2.118;2022-09-03T08:21:40;18.88;;;3.28;;
27644;SDS011;15054;57.152;-2.118;2022-09-03T08:24:08;17.83;;;4.13;;
27644;SDS011;15054;57.152;-2.118;2022-09-03T08:26:39;21.77;;;4.40;;
27644;SDS011;15054;57.152;-2.118;2022-09-03T08:29:13;27.08;;;5.22;;
27644;SDS011;15054;57.152;-2.118;2022-09-03T08:31:40;22.83;;;4.13;;
27644;SDS011;15054;57.152;-2.118;2022-09-03T08:34:08;23.52;;;4.18;;
27644;SDS011;15054;57.152;-2.118;2022-09-03T08:36:37;16.58;;;3.15;;
27644;SDS011;15054;57.152;-2.118;2022-09-03T08:39:07;17.75;;;2.97;;
27644;SDS011;15054;57.152;-2.118;2022-09-03T08:44:29;21.70;;;4.38;;
27644;SDS011;15054;57.152;-2.118;2022-09-03T08:47:17;18.83;;;3.50;;
27644;SDS011;15054;57.152;-2.118;2022-09-03T08:55:35;19.65;;;3.47;;
27644;SDS011;15054;57.152;-2.118;2022-09-03T08:58:14;25.27;;;5.07;;
27644;SDS011;15054;57.152;-2.118;2022-09-03T09:00:48;20.83;;;3.50;;
27644;SDS011;15054;57.152;-2.118;2022-09-03T09:04:03;21.25;;;4.30;;
27644;SDS011;15054;57.152;-2.118;2022-09-03T09:12:21;23.67;;;4.38;;
27644;SDS011;15054;57.152;-2.118;2022-09-03T09:15:55;18.48;;;3.40;;
27644;SDS011;15054;57.152;-2.118;2022-09-03T09:18:22;19.65;;;3.60;;
27644;SDS011;15054;57.152;-2.118;2022-09-03T09:23:47;12.70;;;2.95;;
27644;SDS011;15054;57.152;-2.118;2022-09-03T09:26:17;21.48;;;3.97;;
27644;SDS011;15054;57.152;-2.118;2022-09-03T09:28:46;21.83;;;3.92;;
27644;SDS011;15054;57.152;-2.118;2022-09-03T09:31:20;28.77;;;5.22;;
27644;SDS011;15054;57.152;-2.118;2022-09-03T09:33:47;20.50;;;3.53;;
27644;SDS011;15054;57.152;-2.118;2022-09-03T09:36:16;28.05;;;5.45;;
27644;SDS011;15054;57.152;-2.118;2022-09-03T09:38:45;21.60;;;4.80;;
27644;SDS011;15054;57.152;-2.118;2022-09-03T09:41:15;23.73;;;5.00;;
27644;SDS011;15054;57.152;-2.118;2022-09-03T09:43:47;20.38;;;4.60;;
27644;SDS011;15054;57.152;-2.118;2022-09-03T09:46:33;19.35;;;4.35;;
27644;SDS011;15054;57.152;-2.118;2022-09-03T09:49:07;22.65;;;4.00;;
27644;SDS011;15054;57.152;-2.118;2022-09-03T09:52:02;23.02;;;4.53;;
27644;SDS011;15054;57.152;-2.118;2022-09-03T09:54:40;18.92;;;3.80;;
27644;SDS011;15054;57.152;-2.118;2022-09-03T09:57:13;27.02;;;5.60;;
27644;SDS011;15054;57.152;-2.118;2022-09-03T09:59:43;18.87;;;4.17;;
27644;SDS011;15054;57.152;-2.118;2022-09-03T10:04:49;22.88;;;5.40;;
27644;SDS011;15054;57.152;-2.118;2022-09-03T10:10:07;24.75;;;5.07;;
27644;SDS011;15054;57.152;-2.118;2022-09-03T10:15:34;21.10;;;3.97;;
27644;SDS011;15054;57.152;-2.118;2022-09-03T10:20:57;27.98;;;3.95;;
27644;SDS011;15054;57.152;-2.118;2022-09-03T10:26:35;22.25;;;3.95;;
27644;SDS011;15054;57.152;-2.118;2022-09-03T10:29:03;19.98;;;4.25;;
27644;SDS011;15054;57.152;-2.118;2022-09-03T10:31:35;22.98;;;4.07;;
27644;SDS011;15054;57.152;-2.118;2022-09-03T10:45:48;19.52;;;4.28;;
27644;SDS011;15054;57.152;-2.118;2022-09-03T10:51:04;21.10;;;4.45;;
27644;SDS011;15054;57.152;-2.118;2022-09-03T10:56:25;16.25;;;3.38;;
27644;SDS011;15054;57.152;-2.118;2022-09-03T11:02:30;19.67;;;4.25;;
27644;SDS011;15054;57.152;-2.118;2022-09-03T11:05:13;24.13;;;4.63;;
27644;SDS011;15054;57.152;-2.118;2022-09-03T11:07:48;20.83;;;4.32;;
27644;SDS011;15054;57.152;-2.118;2022-09-03T11:18:26;21.92;;;4.20;;
27644;SDS011;15054;57.152;-2.118;2022-09-03T11:21:12;24.25;;;4.15;;
27644;SDS011;15054;57.152;-2.118;2022-09-03T11:23:42;20.27;;;4.53;;
27644;SDS011;15054;57.152;-2.118;2022-09-03T11:26:14;24.35;;;4.97;;
27644;SDS011;15054;57.152;-2.118;2022-09-03T11:37:32;18.70;;;5.07;;
27644;SDS011;15054;57.152;-2.118;2022-09-03T11:40:03;29.00;;;5.57;;
27644;SDS011;15054;57.152;-2.118;2022-09-03T11:42:40;16.77;;;3.35;;
27644;SDS011;15054;57.152;-2.118;2022-09-03T11:47:55;14.77;;;3.88;;
27644;SDS011;15054;57.152;-2.118;2022-09-03T11:53:06;14.70;;;3.92;;
27644;SDS011;15054;57.152;-2.118;2022-09-03T11:56:12;21.98;;;4.50;;
27644;SDS011;15054;57.152;-2.118;2022-09-03T11:58:44;22.13;;;4.60;;
27644;SDS011;15054;57.152;-2.118;2022-09-03T12:01:13;21.83;;;4.43;;
27644;SDS011;15054;57.152;-2.118;2022-09-03T12:03:44;20.98;;;4.18;;
27644;SDS011;15054;57.152;-2.118;2022-09-03T12:09:47;17.15;;;3.72;;
27644;SDS011;15054;57.152;-2.118;2022-09-03T12:11:51;23.77;;;5.80;;
27644;SDS011;15054;57.152;-2.118;2022-09-03T12:17:05;20.73;;;4.75;;
27644;SDS011;15054;57.152;-2.118;2022-09-03T12:19:53;22.50;;;4.68;;
27644;SDS011;15054;57.152;-2.118;2022-09-03T12:22:24;17.05;;;3.95;;
27644;SDS011;15054;57.152;-2.118;2022-09-03T12:25:06;27.80;;;5.15;;
27644;SDS011;15054;57.152;-2.118;2022-09-03T12:27:43;22.02;;;4.07;;
27644;SDS011;15054;57.152;-2.118;2022-09-03T12:30:20;27.38;;;5.10;;
27644;SDS011;15054;57.152;-2.118;2022-09-03T12:32:50;24.05;;;5.05;;
27644;SDS011;15054;57.152;-2.118;2022-09-03T12:35:30;21.30;;;3.95;;
27644;SDS011;15054;57.152;-2.118;2022-09-03T12:38:22;19.83;;;4.40;;
27644;SDS011;15054;57.152;-2.118;2022-09-03T12:40:50;22.00;;;4.72;;
27644;SDS011;15054;57.152;-2.118;2022-09-03T12:43:37;15.27;;;3.70;;
27644;SDS011;15054;57.152;-2.118;2022-09-03T12:46:12;20.92;;;3.95;;
27644;SDS011;15054;57.152;-2.118;2022-09-03T12:52:27;17.42;;;4.30;;
27644;SDS011;15054;57.152;-2.118;2022-09-03T12:57:31;17.27;;;4.10;;
27644;SDS011;15054;57.152;-2.118;2022-09-03T13:00:09;26.10;;;4.63;;
27644;SDS011;15054;57.152;-2.118;2022-09-03T13:02:51;12.63;;;3.88;;
27644;SDS011;15054;57.152;-2.118;2022-09-03T13:05:33;18.60;;;4.32;;
27644;SDS011;15054;57.152;-2.118;2022-09-03T13:08:04;20.25;;;4.95;;
27644;SDS011;15054;57.152;-2.118;2022-09-03T13:10:37;20.65;;;4.90;;
27644;SDS011;15054;57.152;-2.118;2022-09-03T13:19:57;13.88;;;4.05;;
27644;SDS011;15054;57.152;-2.118;2022-09-03T13:22:29;24.63;;;4.60;;
27644;SDS011;15054;57.152;-2.118;2022-09-03T13:25:15;16.17;;;3.70;;
27644;SDS011;15054;57.152;-2.118;2022-09-03T13:33:56;15.90;;;4.35;;
27644;SDS011;15054;57.152;-2.118;2022-09-03T13:36:45;20.08;;;4.68;;
27644;SDS011;15054;57.152;-2.118;2022-09-03T13:39:25;20.70;;;3.65;;
27644;SDS011;15054;57.152;-2.118;2022-09-03T13:44:47;17.45;;;4.05;;
27644;SDS011;15054;57.152;-2.118;2022-09-03T13:47:34;23.10;;;5.20;;
27644;SDS011;15054;57.152;-2.118;2022-09-03T13:50:30;19.73;;;4.22;;
27644;SDS011;15054;57.152;-2.118;2022-09-03T13:56:18;18.67;;;5.13;;
27644;SDS011;15054;57.152;-2.118;2022-09-03T13:58:59;19.00;;;4.03;;
27644;SDS011;15054;57.152;-2.118;2022-09-03T14:02:01;19.73;;;3.95;;
27644;SDS011;15054;57.152;-2.118;2022-09-03T14:07:24;16.90;;;4.00;;
27644;SDS011;15054;57.152;-2.118;2022-09-03T14:10:05;19.88;;;3.85;;
27644;SDS011;15054;57.152;-2.118;2022-09-03T14:12:41;22.55;;;4.93;;
27644;SDS011;15054;57.152;-2.118;2022-09-03T14:20:26;28.00;;;4.60;;
27644;SDS011;15054;57.152;-2.118;2022-09-03T14:25:33;16.65;;;4.18;;
27644;SDS011;15054;57.152;-2.118;2022-09-03T14:37:17;19.23;;;4.82;;
27644;SDS011;15054;57.152;-2.118;2022-09-03T14:40:12;17.63;;;4.28;;
27644;SDS011;15054;57.152;-2.118;2022-09-03T14:48:10;14.90;;;3.67;;
27644;SDS011;15054;57.152;-2.118;2022-09-03T15:05:41;25.92;;;4.90;;
27644;SDS011;15054;57.152;-2.118;2022-09-03T15:11:03;24.30;;;4.70;;
27644;SDS011;15054;57.152;-2.118;2022-09-03T15:14:03;19.85;;;4.47;;
27644;SDS011;15054;57.152;-2.118;2022-09-03T15:36:51;29.83;;;5.50;;
27644;SDS011;15054;57.152;-2.118;2022-09-03T15:39:24;23.33;;;5.13;;
27644;SDS011;15054;57.152;-2.118;2022-09-03T15:42:03;27.02;;;4.57;;
27644;SDS011;15054;57.152;-2.118;2022-09-03T15:44:40;21.13;;;4.45;;
27644;SDS011;15054;57.152;-2.118;2022-09-03T15:50:34;21.98;;;5.18;;
27644;SDS011;15054;57.152;-2.118;2022-09-03T16:02:05;17.27;;;5.57;;
27644;SDS011;15054;57.152;-2.118;2022-09-03T16:04:42;29.35;;;6.53;;
27644;SDS011;15054;57.152;-2.118;2022-09-03T16:10:14;21.13;;;5.53;;
27644;SDS011;15054;57.152;-2.118;2022-09-03T16:21:03;22.27;;;5.13;;
27644;SDS011;15054;57.152;-2.118;2022-09-03T16:24:16;37.50;;;6.68;;
27644;SDS011;15054;57.152;-2.118;2022-09-03T16:29:26;23.75;;;5.35;;
27644;SDS011;15054;57.152;-2.118;2022-09-03T16:35:05;20.25;;;4.38;;
27644;SDS011;15054;57.152;-2.118;2022-09-03T16:38:07;19.17;;;5.50;;
27644;SDS011;15054;57.152;-2.118;2022-09-03T16:40:54;24.30;;;5.50;;
27644;SDS011;15054;57.152;-2.118;2022-09-03T16:43:48;26.98;;;6.28;;
27644;SDS011;15054;57.152;-2.118;2022-09-03T16:46:48;25.10;;;5.38;;
27644;SDS011;15054;57.152;-2.118;2022-09-03T17:00:16;28.00;;;5.88;;
27644;SDS011;15054;57.152;-2.118;2022-09-03T17:22:25;29.63;;;6.28;;
27644;SDS011;15054;57.152;-2.118;2022-09-03T17:25:23;24.77;;;5.57;;
27644;SDS011;15054;57.152;-2.118;2022-09-03T17:30:47;34.58;;;6.28;;
27644;SDS011;15054;57.152;-2.118;2022-09-03T17:33:23;27.08;;;6.10;;
27644;SDS011;15054;57.152;-2.118;2022-09-03T17:44:13;25.27;;;5.50;;
27644;SDS011;15054;57.152;-2.118;2022-09-03T17:46:53;23.83;;;5.53;;
27644;SDS011;15054;57.152;-2.118;2022-09-03T17:52:43;23.98;;;5.90;;
27644;SDS011;15054;57.152;-2.118;2022-09-03T17:55:43;24.65;;;5.78;;
27644;SDS011;15054;57.152;-2.118;2022-09-03T18:01:01;20.00;;;4.55;;
27644;SDS011;15054;57.152;-2.118;2022-09-03T18:06:36;21.83;;;6.18;;
27644;SDS011;15054;57.152;-2.118;2022-09-03T18:12:08;22.40;;;4.85;;
27644;SDS011;15054;57.152;-2.118;2022-09-03T18:14:47;17.45;;;4.53;;
27644;SDS011;15054;57.152;-2.118;2022-09-03T18:17:32;29.58;;;5.45;;
27644;SDS011;15054;57.152;-2.118;2022-09-03T18:20:14;27.92;;;6.07;;
27644;SDS011;15054;57.152;-2.118;2022-09-03T18:25:59;24.02;;;6.18;;
27644;SDS011;15054;57.152;-2.118;2022-09-03T18:32:00;31.65;;;6.22;;
27644;SDS011;15054;57.152;-2.118;2022-09-03T18:37:31;21.13;;;4.28;;
27644;SDS011;15054;57.152;-2.118;2022-09-03T18:40:18;30.67;;;5.43;;
27644;SDS011;15054;57.152;-2.118;2022-09-03T18:46:40;21.13;;;3.72;;
27644;SDS011;15054;57.152;-2.118;2022-09-03T18:50:03;24.42;;;4.75;;
27644;SDS011;15054;57.152;-2.118;2022-09-03T18:53:17;15.87;;;4.23;;
27644;SDS011;15054;57.152;-2.118;2022-09-03T19:02:28;19.30;;;4.53;;
27644;SDS011;15054;57.152;-2.118;2022-09-03T19:15:08;19.80;;;4.45;;
27644;SDS011;15054;57.152;-2.118;2022-09-03T19:24:08;21.63;;;4.20;;
27644;SDS011;15054;57.152;-2.118;2022-09-03T19:26:58;24.92;;;4.88;;
27644;SDS011;15054;57.152;-2.118;2022-09-03T19:54:37;25.25;;;5.53;;
27644;SDS011;15054;57.152;-2.118;2022-09-03T19:57:23;17.77;;;4.15;;
27644;SDS011;15054;57.152;-2.118;2022-09-03T20:00:11;14.57;;;3.88;;
27644;SDS011;15054;57.152;-2.118;2022-09-03T20:02:59;14.27;;;3.80;;
27644;SDS011;15054;57.152;-2.118;2022-09-03T20:05:46;21.63;;;4.25;;
27644;SDS011;15054;57.152;-2.118;2022-09-03T20:08:36;22.05;;;4.25;;
27644;SDS011;15054;57.152;-2.118;2022-09-03T20:11:23;15.57;;;3.63;;
27644;SDS011;15054;57.152;-2.118;2022-09-03T20:13:53;33.08;;;5.18;;
27644;SDS011;15054;57.152;-2.118;2022-09-03T20:25:15;18.50;;;4.43;;
27644;SDS011;15054;57.152;-2.118;2022-09-03T20:28:13;22.17;;;3.72;;
27644;SDS011;15054;57.152;-2.118;2022-09-03T20:31:16;22.40;;;5.18;;
27644;SDS011;15054;57.152;-2.118;2022-09-03T20:39:15;24.95;;;4.60;;
27644;SDS011;15054;57.152;-2.118;2022-09-03T20:45:13;20.10;;;4.28;;
27644;SDS011;15054;57.152;-2.118;2022-09-03T20:47:45;18.42;;;3.90;;
27644;SDS011;15054;57.152;-2.118;2022-09-03T20:53:51;14.13;;;3.40;;
27644;SDS011;15054;57.152;-2.118;2022-09-03T20:59:05;18.60;;;4.07;;
27644;SDS011;15054;57.152;-2.118;2022-09-03T21:14:53;18.70;;;5.00;;
27644;SDS011;15054;57.152;-2.118;2022-09-03T21:26:08;20.42;;;3.42;;
27644;SDS011;15054;57.152;-2.118;2022-09-03T21:28:43;17.42;;;3.67;;
27644;SDS011;15054;57.152;-2.118;2022-09-03T21:31:23;21.50;;;4.13;;
27644;SDS011;15054;57.152;-2.118;2022-09-03T21:33:57;19.52;;;3.50;;
27644;SDS011;15054;57.152;-2.118;2022-09-03T21:36:35;16.80;;;4.00;;
27644;SDS011;15054;57.152;-2.118;2022-09-03T21:39:08;19.23;;;4.30;;
27644;SDS011;15054;57.152;-2.118;2022-09-03T21:41:42;16.50;;;3.47;;
27644;SDS011;15054;57.152;-2.118;2022-09-03T21:44:16;16.90;;;3.13;;
27644;SDS011;15054;57.152;-2.118;2022-09-03T21:47:05;15.77;;;3.22;;
27644;SDS011;15054;57.152;-2.118;2022-09-03T21:49:42;20.30;;;4.53;;
27644;SDS011;15054;57.152;-2.118;2022-09-03T21:52:20;17.13;;;4.10;;